Time;durP1;ratioP1;P1;durP2;ratioP2;P2;SDS_P1;SDS_P2;PMS_P1;PMS_P2;Temp;Humidity;BMP_temperature;BMP_pressure;BME280_temperature;BME280_humidity;BME280_pressure;Samples;Min_cycle;Max_cycle;Signal;HPM_P1;HPM_P2
2021/01/12 00:00:35;;;;;;;;;69.50;54.25;;;;;-0.93;87.11;101730.66;3726467;37;20628;-62
2021/01/12 00:03:01;;;;;;;;;63.25;48.75;;;;;-0.93;87.43;101735.97;3726683;37;20587;-61
2021/01/12 00:05:28;;;;;;;;;70.75;49.75;;;;;-0.97;87.17;101717.59;3726005;37;20696;-63
2021/01/12 00:07:56;;;;;;;;;68.00;51.25;;;;;-0.85;87.44;101739.06;3725719;38;20591;-61
2021/01/12 00:10:28;;;;;;;;;72.00;48.25;;;;;-0.89;87.04;101734.87;3725590;38;20612;-62
2021/01/12 00:12:55;;;;;;;;;62.25;45.00;;;;;-0.87;87.49;101732.13;3725818;38;20578;-64
2021/01/12 00:15:21;;;;;;;;;66.00;48.25;;;;;-1.07;87.21;101694.22;3725717;37;20584;-62
2021/01/12 00:17:48;;;;;;;;;67.25;45.75;;;;;-0.81;87.20;101734.44;3725763;38;20594;-62
2021/01/12 00:20:14;;;;;;;;;65.75;51.25;;;;;-0.87;87.05;101725.00;3725379;38;20574;-62
2021/01/12 00:22:41;;;;;;;;;58.25;46.50;;;;;-0.92;87.27;101702.28;3725724;37;20568;-63
2021/01/12 00:25:09;;;;;;;;;63.50;50.75;;;;;-0.89;87.23;101694.13;3725471;38;20575;-62
2021/01/12 00:27:36;;;;;;;;;60.25;44.25;;;;;-0.93;87.29;101700.56;3725410;37;20563;-63
2021/01/12 00:30:06;;;;;;;;;62.25;47.25;;;;;-0.73;87.31;101733.09;3725536;37;20591;-64
2021/01/12 00:32:33;;;;;;;;;51.75;43.75;;;;;-0.72;87.03;101721.53;3725316;37;20546;-63
2021/01/12 00:35:00;;;;;;;;;72.75;48.00;;;;;-0.78;87.17;101724.53;3725745;38;20574;-64
2021/01/12 00:37:27;;;;;;;;;59.00;45.25;;;;;-0.77;87.31;101712.09;3725766;38;20537;-62
2021/01/12 00:39:55;;;;;;;;;57.75;47.50;;;;;-0.90;87.27;101687.09;3725669;37;20555;-64
2021/01/12 00:42:22;;;;;;;;;65.75;52.50;;;;;-0.78;86.88;101707.72;3725276;38;20532;-63
2021/01/12 00:44:49;;;;;;;;;64.25;48.25;;;;;-0.74;87.26;101709.25;3725909;37;20560;-62
2021/01/12 00:47:19;;;;;;;;;65.00;49.75;;;;;-0.86;87.24;101686.00;3725349;38;20560;-62
2021/01/12 00:49:46;;;;;;;;;48.25;44.00;;;;;-0.76;86.90;101704.03;3725882;37;20539;-62
2021/01/12 00:52:13;;;;;;;;;61.25;47.75;;;;;-0.82;87.14;101685.75;3725885;37;20519;-65
2021/01/12 00:54:39;;;;;;;;;66.75;50.50;;;;;-0.92;87.28;101663.28;3725424;38;20532;-62
2021/01/12 00:57:07;;;;;;;;;60.00;43.25;;;;;-0.76;87.13;101682.78;3725774;37;20527;-63
2021/01/12 00:59:34;;;;;;;;;60.50;44.50;;;;;-0.67;86.98;101692.91;3725189;37;20558;-64
2021/01/12 01:02:05;;;;;;;;;63.75;47.25;;;;;-0.88;86.99;101653.34;3724942;37;20525;-64
2021/01/12 01:04:32;;;;;;;;;64.75;46.75;;;;;-0.73;86.92;101669.31;3725297;37;20851;-62
2021/01/12 01:07:00;;;;;;;;;68.25;47.00;;;;;-0.72;86.92;101662.19;3725481;38;20514;-63
2021/01/12 01:09:35;;;;;;;;;61.00;47.75;;;;;-0.92;86.87;101623.41;3725384;38;20522;-64
2021/01/12 01:12:04;;;;;;;;;60.75;47.00;;;;;-0.71;87.15;101653.28;3725809;38;20520;-63
2021/01/12 01:14:31;;;;;;;;;41.00;32.00;;;;;-0.74;86.97;101645.47;3725775;38;20507;-62
2021/01/12 01:16:57;;;;;;;;;57.50;45.50;;;;;-0.69;86.88;101646.06;3725275;37;20510;-63
2021/01/12 01:19:24;;;;;;;;;56.25;37.75;;;;;-0.72;87.08;101643.59;3725716;37;20514;-64
2021/01/12 01:21:52;;;;;;;;;60.00;45.50;;;;;-0.69;86.99;101640.75;3725583;37;20504;-62
2021/01/12 01:24:18;;;;;;;;;49.75;43.00;;;;;-0.67;87.10;101628.25;3725361;38;20496;-64
2021/01/12 01:26:44;;;;;;;;;55.75;44.25;;;;;-0.67;86.84;101630.91;3725687;38;20497;-64
2021/01/12 01:29:11;;;;;;;;;59.00;43.50;;;;;-0.58;86.61;101634.84;3725707;37;20485;-62
2021/01/12 01:31:42;;;;;;;;;59.25;44.25;;;;;-0.75;86.66;101611.84;3725795;38;20502;-63
2021/01/12 01:34:08;;;;;;;;;57.75;44.25;;;;;-0.50;87.11;101620.16;3725316;37;20490;-62
2021/01/12 01:36:36;;;;;;;;;57.00;42.50;;;;;-0.49;86.61;101621.00;3725760;37;20489;-63
2021/01/12 01:39:04;;;;;;;;;57.00;44.75;;;;;-0.51;86.68;101617.56;3725769;38;20489;-62
2021/01/12 01:41:30;;;;;;;;;55.25;42.50;;;;;-0.57;86.72;101612.63;3725702;38;20455;-62
2021/01/12 01:43:57;;;;;;;;;63.50;45.75;;;;;-0.55;86.79;101603.63;3725601;37;20462;-62
2021/01/12 01:46:23;;;;;;;;;59.00;43.50;;;;;-0.54;86.41;101601.84;3725883;38;20472;-63
2021/01/12 01:48:52;;;;;;;;;59.50;45.50;;;;;-0.55;86.71;101586.81;3725709;37;20492;-63
2021/01/12 01:51:19;;;;;;;;;52.50;45.00;;;;;-0.54;86.36;101592.06;3725374;37;20443;-63
2021/01/12 01:53:47;;;;;;;;;52.50;38.75;;;;;-0.58;86.39;101587.84;3725435;37;20447;-62
2021/01/12 01:56:16;;;;;;;;;51.75;39.25;;;;;-0.56;86.72;101595.75;3725870;37;20469;-63
2021/01/12 01:58:44;;;;;;;;;47.75;38.00;;;;;-0.59;86.51;101598.56;3725639;38;20463;-63
2021/01/12 02:01:11;;;;;;;;;49.00;41.00;;;;;-0.55;86.70;101590.34;3725394;37;20527;-63
2021/01/12 02:04:19;;;;;;;;;56.00;44.25;;;;;-0.60;86.61;101595.06;3725213;37;20598;-65
2021/01/12 02:06:49;;;;;;;;;58.75;41.00;;;;;-0.60;86.51;101587.09;3725846;38;20465;-65
2021/01/12 02:09:53;;;;;;;;;57.25;43.00;;;;;-0.56;86.61;101587.75;3725233;38;20533;-63
2021/01/12 02:12:28;;;;;;;;;55.25;43.00;;;;;-0.55;86.33;101584.16;3725648;38;20422;-63
2021/01/12 02:14:56;;;;;;;;;51.25;43.00;;;;;-0.75;86.35;101562.22;3725614;37;20440;-64
2021/01/12 02:17:29;;;;;;;;;58.00;45.50;;;;;-0.62;86.38;101588.97;3725368;37;20429;-64
2021/01/12 02:19:57;;;;;;;;;60.00;43.75;;;;;-0.63;86.24;101587.25;3725480;37;20441;-62
2021/01/12 02:22:26;;;;;;;;;62.50;45.00;;;;;-0.60;86.51;101589.75;3725083;37;20405;-64
2021/01/12 02:24:54;;;;;;;;;60.00;44.25;;;;;-0.58;86.38;101581.69;3725746;37;20423;-64
2021/01/12 02:27:23;;;;;;;;;59.50;42.50;;;;;-0.58;86.35;101585.19;3725336;38;20483;-63
2021/01/12 02:29:52;;;;;;;;;52.50;38.00;;;;;-0.55;86.25;101584.16;3725700;37;20434;-63
2021/01/12 02:32:23;;;;;;;;;52.75;41.00;;;;;-0.58;86.39;101569.25;3725578;37;20408;-63
2021/01/12 02:34:56;;;;;;;;;41.25;37.25;;;;;-0.53;86.30;101572.50;3725406;38;20407;-63
2021/01/12 02:37:24;;;;;;;;;55.75;42.00;;;;;-0.74;85.92;101536.50;3725437;37;20389;-62
2021/01/12 02:40:07;;;;;;;;;51.00;43.50;;;;;-0.56;86.48;101555.87;3725442;37;20412;-62
2021/01/12 02:42:35;;;;;;;;;51.25;40.50;;;;;-0.78;86.00;101505.72;3725816;37;20407;-63
2021/01/12 02:45:02;;;;;;;;;51.50;42.50;;;;;-0.57;85.98;101549.69;3725351;37;20384;-61
2021/01/12 02:47:31;;;;;;;;;51.75;41.50;;;;;-0.60;86.09;101549.84;3725755;37;20356;-61
2021/01/12 02:49:57;;;;;;;;;48.25;40.75;;;;;-0.71;86.07;101539.84;3725784;38;20365;-63
2021/01/12 02:52:24;;;;;;;;;47.25;41.50;;;;;-0.69;86.09;101527.31;3725765;38;20381;-63
2021/01/12 02:54:51;;;;;;;;;50.00;43.00;;;;;-0.58;85.90;101547.97;3725747;38;20548;-63
2021/01/12 02:57:18;;;;;;;;;60.00;41.00;;;;;-0.64;86.01;101528.84;3725371;38;20372;-63
2021/01/12 02:59:48;;;;;;;;;50.25;38.25;;;;;-0.54;86.24;101541.53;3725598;38;20355;-63
2021/01/12 03:02:20;;;;;;;;;46.50;39.75;;;;;-0.45;86.24;101534.78;3725586;37;20370;-62
2021/01/12 03:04:48;;;;;;;;;56.00;43.00;;;;;-0.44;85.83;101533.84;3725445;37;20358;-61
2021/01/12 03:07:15;;;;;;;;;36.00;31.50;;;;;-0.46;85.59;101530.44;3725380;37;20359;-64
2021/01/12 03:09:42;;;;;;;;;52.50;41.00;;;;;-0.45;85.75;101533.00;3725465;38;20352;-64
2021/01/12 03:12:10;;;;;;;;;50.50;40.00;;;;;-0.45;85.72;101522.34;3725770;38;20331;-63
2021/01/12 03:14:36;;;;;;;;;49.00;39.75;;;;;-0.49;85.54;101512.00;3725812;38;20338;-63
2021/01/12 03:17:02;;;;;;;;;45.00;38.25;;;;;-0.39;85.38;101526.47;3725772;38;20330;-62
2021/01/12 03:19:29;;;;;;;;;49.75;39.50;;;;;-0.41;85.10;101520.38;3725744;37;20328;-62
2021/01/12 03:21:55;;;;;;;;;54.00;42.75;;;;;-0.37;85.37;101517.44;3725598;37;20319;-62
2021/01/12 03:24:24;;;;;;;;;55.25;37.75;;;;;-0.58;85.26;101472.69;3725756;38;20334;-62
2021/01/12 03:26:50;;;;;;;;;49.75;41.25;;;;;-0.45;85.09;101498.44;3725327;37;20327;-62
2021/01/12 03:29:18;;;;;;;;;55.75;41.75;;;;;-0.37;85.12;101511.28;3725781;37;20334;-62
2021/01/12 03:31:45;;;;;;;;;56.50;41.25;;;;;-0.35;85.09;101507.56;3725432;38;20317;-63
2021/01/12 03:34:17;;;;;;;;;51.50;40.50;;;;;-0.36;84.98;101510.31;3725361;38;20323;-64
2021/01/12 03:36:46;;;;;;;;;54.75;43.00;;;;;-0.36;84.69;101497.03;3725674;37;20294;-62
2021/01/12 03:39:13;;;;;;;;;51.00;43.50;;;;;-0.37;85.24;101492.66;3725361;38;20292;-62
2021/01/12 03:41:42;;;;;;;;;62.50;45.50;;;;;-0.32;85.01;101487.94;3725311;37;20316;-62
2021/01/12 03:44:12;;;;;;;;;51.50;42.00;;;;;-0.34;84.75;101487.16;3725371;38;20325;-64
2021/01/12 03:46:39;;;;;;;;;58.50;44.75;;;;;-0.37;84.83;101479.34;3725699;37;20287;-62
2021/01/12 03:49:08;;;;;;;;;58.75;43.75;;;;;-0.30;84.94;101474.53;3725514;37;20320;-64
2021/01/12 03:51:36;;;;;;;;;49.25;42.00;;;;;-0.38;84.42;101472.34;3725537;37;20278;-63
2021/01/12 03:54:04;;;;;;;;;61.00;45.00;;;;;-0.30;84.82;101488.69;3725673;38;20299;-64
2021/01/12 03:56:30;;;;;;;;;52.25;42.25;;;;;-0.27;84.68;101477.87;3725708;37;20424;-62
2021/01/12 03:58:57;;;;;;;;;60.25;44.50;;;;;-0.43;84.70;101446.00;3725792;38;20285;-62
2021/01/12 04:01:23;;;;;;;;;54.00;45.00;;;;;-0.39;84.44;101462.62;3725832;37;20289;-61
2021/01/12 04:03:50;;;;;;;;;56.50;43.00;;;;;-0.27;84.57;101485.00;3725666;38;20294;-63
2021/01/12 04:06:19;;;;;;;;;59.75;46.75;;;;;-0.26;84.41;101479.59;3725658;37;20265;-62
2021/01/12 04:08:54;;;;;;;;;50.50;42.00;;;;;-0.24;84.53;101471.50;3725612;38;20273;-62
2021/01/12 04:11:23;;;;;;;;;58.75;37.00;;;;;-0.42;84.59;101463.69;3725757;38;20246;-62
2021/01/12 04:13:50;;;;;;;;;49.00;40.25;;;;;-0.30;84.22;101482.50;3725372;37;20255;-63
2021/01/12 04:16:16;;;;;;;;;55.25;43.75;;;;;-0.31;84.65;101478.16;3725742;37;20264;-64
2021/01/12 04:18:45;;;;;;;;;50.25;43.00;;;;;-0.34;84.69;101473.87;3725710;37;20255;-62
2021/01/12 04:21:13;;;;;;;;;59.50;46.25;;;;;-0.35;84.41;101474.81;3725827;38;20255;-62
2021/01/12 04:23:56;;;;;;;;;59.75;44.50;;;;;-0.42;84.77;101455.69;3725439;37;20268;-62
2021/01/12 04:26:22;;;;;;;;;57.50;42.00;;;;;-0.30;84.98;101463.91;3725732;38;20261;-63
2021/01/12 04:28:48;;;;;;;;;55.25;42.25;;;;;-0.37;84.93;101450.09;3725851;38;20264;-63
2021/01/12 04:31:15;;;;;;;;;48.50;39.25;;;;;-0.26;84.64;101462.75;3725918;38;20248;-61
2021/01/12 04:33:41;;;;;;;;;54.00;43.25;;;;;-0.26;84.51;101449.47;3725894;38;20233;-64
2021/01/12 04:36:09;;;;;;;;;58.50;42.00;;;;;-0.39;84.15;101436.91;3725247;37;20211;-64
2021/01/12 04:38:38;;;;;;;;;62.00;47.50;;;;;-0.21;84.55;101455.38;3725835;38;20232;-61
2021/01/12 04:41:05;;;;;;;;;69.25;52.00;;;;;-0.20;84.19;101460.59;3725416;37;20233;-63
2021/01/12 04:43:31;;;;;;;;;64.00;46.25;;;;;-0.21;84.22;101461.53;3725419;37;20201;-63
2021/01/12 04:45:58;;;;;;;;;66.00;48.50;;;;;-0.28;83.96;101462.00;3725845;38;20219;-63
2021/01/12 04:48:26;;;;;;;;;57.50;41.50;;;;;-0.39;84.15;101463.50;3725439;38;20207;-64
2021/01/12 04:51:07;;;;;;;;;68.25;50.00;;;;;-0.37;84.15;101477.56;3725956;38;20334;-62
2021/01/12 04:53:47;;;;;;;;;62.75;49.75;;;;;-0.37;84.09;101474.03;3725765;37;20205;-61
2021/01/12 04:56:25;;;;;;;;;55.25;42.75;;;;;-0.54;84.07;101434.31;3725284;38;20179;-64
2021/01/12 04:58:54;;;;;;;;;60.75;45.75;;;;;-0.38;84.15;101462.56;3725459;37;20185;-63
2021/01/12 05:01:24;;;;;;;;;62.75;44.00;;;;;-0.44;84.35;101462.06;3725544;37;20205;-62
2021/01/12 05:03:54;;;;;;;;;60.75;46.75;;;;;-0.36;84.48;101478.41;3725869;37;20212;-62
2021/01/12 05:06:24;;;;;;;;;61.50;44.00;;;;;-0.50;84.37;101465.06;3726287;37;20200;-63
2021/01/12 05:08:56;;;;;;;;;63.25;46.00;;;;;-0.43;84.32;101466.44;3727063;37;20198;-62
2021/01/12 05:11:29;;;;;;;;;66.50;51.75;;;;;-0.42;84.75;101466.34;3725532;37;20171;-62
2021/01/12 05:14:01;;;;;;;;;52.75;42.75;;;;;-0.43;84.65;101459.31;3725424;37;20199;-62
2021/01/12 05:16:28;;;;;;;;;67.75;52.00;;;;;-0.60;84.46;101434.69;3725941;38;20163;-64
2021/01/12 05:18:58;;;;;;;;;64.75;49.50;;;;;-0.39;84.68;101449.34;3725452;38;20177;-61
2021/01/12 05:21:29;;;;;;;;;66.75;51.00;;;;;-0.39;84.95;101452.84;3725773;37;20167;-62
2021/01/12 05:24:08;;;;;;;;;65.50;49.25;;;;;-0.55;84.53;101428.16;3725451;37;20195;-62
2021/01/12 05:26:36;;;;;;;;;63.00;50.00;;;;;-0.39;85.03;101452.84;3725451;37;20171;-63
2021/01/12 05:29:04;;;;;;;;;68.75;53.00;;;;;-0.56;85.04;101420.25;3725871;38;20152;-63
2021/01/12 05:31:31;;;;;;;;;63.75;49.00;;;;;-0.44;84.74;101441.62;3725775;37;20160;-62
2021/01/12 05:34:10;;;;;;;;;67.75;51.50;;;;;-0.43;85.05;101437.19;3725770;37;20167;-62
2021/01/12 05:37:04;;;;;;;;;72.00;54.00;;;;;-0.52;84.96;101421.81;3725514;37;20145;-61
2021/01/12 05:39:41;;;;;;;;;78.75;56.50;;;;;-0.43;84.84;101434.50;3725574;37;20114;-62
2021/01/12 05:42:10;;;;;;;;;76.00;52.75;;;;;-0.42;85.40;101426.44;3725752;37;20142;-62
2021/01/12 05:44:41;;;;;;;;;70.25;52.50;;;;;-0.40;85.15;101429.87;3725799;38;20205;-61
2021/01/12 05:47:15;;;;;;;;;65.75;51.75;;;;;-0.47;84.97;101412.56;3725685;37;20133;-62
2021/01/12 05:49:45;;;;;;;;;66.75;53.50;;;;;-0.42;85.36;101415.81;3725552;37;20140;-61
2021/01/12 05:52:13;;;;;;;;;64.50;49.25;;;;;-0.50;85.27;101403.91;3725719;38;20150;-62
2021/01/12 05:54:53;;;;;;;;;76.25;55.75;;;;;-0.42;85.23;101418.47;3725276;37;20115;-61
2021/01/12 05:57:24;;;;;;;;;67.75;48.25;;;;;-0.42;85.30;101426.44;3725510;38;20109;-61
2021/01/12 05:59:52;;;;;;;;;68.50;51.00;;;;;-0.37;85.60;101407.56;3725397;37;20105;-61
2021/01/12 06:02:21;;;;;;;;;74.25;55.25;;;;;-0.36;85.47;101402.16;3725726;38;20121;-62
2021/01/12 06:04:54;;;;;;;;;71.25;53.00;;;;;-0.39;85.46;101389.03;3725842;38;20128;-61
2021/01/12 06:07:21;;;;;;;;;72.25;52.25;;;;;-0.26;85.66;101404.25;3725897;37;20095;-62
2021/01/12 06:09:48;;;;;;;;;70.00;50.50;;;;;-0.17;85.52;101403.69;3725502;37;20102;-63
2021/01/12 06:12:18;;;;;;;;;61.00;46.75;;;;;-0.12;85.78;101402.47;3725420;38;20127;-62
2021/01/12 06:14:52;;;;;;;;;60.75;47.50;;;;;-0.18;85.55;101394.84;3725740;37;20096;-63
2021/01/12 06:17:19;;;;;;;;;67.25;48.50;;;;;-0.03;85.62;101396.56;3725419;37;20092;-64
2021/01/12 06:19:59;;;;;;;;;72.00;51.50;;;;;0.05;85.30;101395.22;3725328;37;20076;-63
2021/01/12 06:22:28;;;;;;;;;62.25;49.25;;;;;0.07;85.59;101386.19;3725434;37;20077;-64
2021/01/12 06:25:07;;;;;;;;;65.25;49.25;;;;;0.11;85.33;101390.34;3725456;38;20102;-62
2021/01/12 06:27:35;;;;;;;;;78.00;54.75;;;;;0.21;85.51;101388.84;3725457;37;20234;-63
2021/01/12 06:30:06;;;;;;;;;63.00;43.50;;;;;0.25;84.82;101392.16;3725707;37;20091;-63
2021/01/12 06:32:35;;;;;;;;;68.75;48.25;;;;;0.18;85.05;101382.84;3725889;37;20080;-63
2021/01/12 06:35:08;;;;;;;;;59.00;45.75;;;;;0.32;85.05;101406.78;3725795;37;20090;-62
2021/01/12 06:37:39;;;;;;;;;64.25;51.00;;;;;0.31;84.79;101405.94;3725352;38;20090;-63
2021/01/12 06:40:17;;;;;;;;;61.50;50.25;;;;;0.25;84.48;101401.00;3725401;37;20073;-63
2021/01/12 06:42:45;;;;;;;;;64.00;49.00;;;;;0.23;84.57;101412.69;3725975;38;20064;-61
2021/01/12 06:45:12;;;;;;;;;69.75;53.00;;;;;0.13;84.23;101390.25;3725354;37;20052;-63
2021/01/12 06:47:39;;;;;;;;;52.50;36.00;;;;;0.19;84.46;101414.69;3725335;38;20049;-64
2021/01/12 06:50:13;;;;;;;;;74.50;53.75;;;;;-0.01;84.22;101385.84;3725444;38;20043;-64
2021/01/12 06:52:53;;;;;;;;;70.50;51.50;;;;;-0.03;84.06;101385.06;3726013;37;20048;-65
2021/01/12 06:55:22;;;;;;;;;63.00;51.50;;;;;0.04;84.03;101389.03;3725967;37;20060;-66
2021/01/12 06:57:51;;;;;;;;;69.00;50.00;;;;;0.11;84.24;101397.50;3725455;38;20038;-62
2021/01/12 07:00:19;;;;;;;;;67.75;51.25;;;;;0.12;84.56;101396.53;3725799;38;20037;-63
2021/01/12 07:02:59;;;;;;;;;54.00;41.00;;;;;0.06;84.15;101396.91;3725790;37;20058;-61
2021/01/12 07:05:40;;;;;;;;;67.50;48.75;;;;;0.06;84.69;101391.59;3725824;38;20056;-62
2021/01/12 07:08:12;;;;;;;;;68.50;50.50;;;;;0.09;84.42;101413.56;3725325;38;20028;-62
2021/01/12 07:10:44;;;;;;;;;56.75;44.50;;;;;0.13;84.70;101420.41;3725357;38;20130;-64
2021/01/12 07:13:10;;;;;;;;;59.25;48.25;;;;;0.18;84.54;101415.66;3726148;38;20038;-64
2021/01/12 07:15:50;;;;;;;;;64.00;47.50;;;;;0.22;84.59;101417.16;3725881;38;20017;-65
2021/01/12 07:18:24;;;;;;;;;68.00;52.75;;;;;0.29;84.52;101410.50;3725688;38;20011;-62
2021/01/12 07:20:53;;;;;;;;;61.75;48.75;;;;;0.35;84.13;101400.41;3725477;38;20017;-65
2021/01/12 07:23:23;;;;;;;;;70.25;54.75;;;;;0.26;84.66;101385.87;3725404;37;20020;-64
2021/01/12 07:25:51;;;;;;;;;67.50;48.25;;;;;0.46;84.17;101413.91;3725470;37;20007;-65
2021/01/12 07:28:20;;;;;;;;;65.25;50.25;;;;;0.45;83.96;101401.53;3725538;37;20019;-64
2021/01/12 07:30:51;;;;;;;;;70.25;52.50;;;;;0.21;83.93;101367.53;3725954;38;20015;-65
2021/01/12 07:33:21;;;;;;;;;69.25;50.00;;;;;0.41;84.34;101392.03;3725945;37;20011;-64
2021/01/12 07:35:55;;;;;;;;;65.75;50.75;;;;;0.54;84.05;101406.25;3727711;37;20008;-65
2021/01/12 07:38:23;;;;;;;;;76.50;57.00;;;;;0.56;84.07;101407.88;3726715;37;20005;-67
2021/01/12 07:40:51;;;;;;;;;66.25;54.75;;;;;0.61;83.90;101403.09;3727193;38;20013;-66
2021/01/12 07:43:20;;;;;;;;;68.25;52.75;;;;;0.69;83.74;101409.75;3726682;37;19986;-65
2021/01/12 07:45:47;;;;;;;;;66.00;50.50;;;;;0.67;83.53;101407.19;3726023;38;19967;-64
2021/01/12 07:48:15;;;;;;;;;63.75;50.50;;;;;0.72;83.61;101406.87;3725660;37;19983;-68
2021/01/12 07:50:46;;;;;;;;;71.25;51.75;;;;;0.72;83.38;101398.88;3725698;38;19996;-63
2021/01/12 07:53:13;;;;;;;;;66.25;52.25;;;;;0.72;83.28;101401.56;3725792;38;19969;-62
2021/01/12 07:55:47;;;;;;;;;70.75;52.00;;;;;0.75;83.34;101386.22;3725693;38;20130;-63
2021/01/12 07:58:14;;;;;;;;;72.25;54.25;;;;;0.70;83.10;101391.00;3725455;38;19983;-63
2021/01/12 08:00:43;;;;;;;;;64.00;49.75;;;;;0.66;82.68;101371.69;3725770;38;19995;-65
2021/01/12 08:03:09;;;;;;;;;62.50;46.00;;;;;0.62;82.92;101383.50;3725480;37;19963;-61
2021/01/12 08:05:37;;;;;;;;;66.75;48.00;;;;;0.72;83.05;101372.25;3725946;37;19979;-63
2021/01/12 08:08:08;;;;;;;;;69.25;50.50;;;;;0.61;83.15;101356.97;3725519;38;19949;-67
2021/01/12 08:10:36;;;;;;;;;68.75;54.50;;;;;0.89;83.14;101375.50;3725261;37;19970;-63
2021/01/12 08:13:08;;;;;;;;;71.50;55.75;;;;;0.93;83.08;101374.34;3725672;38;19938;-63
2021/01/12 08:15:39;;;;;;;;;62.00;47.25;;;;;0.88;82.73;101363.16;3725447;37;19942;-63
2021/01/12 08:18:16;;;;;;;;;56.00;42.75;;;;;0.83;83.10;101351.94;3725593;38;19942;-65
2021/01/12 08:20:44;;;;;;;;;67.50;50.25;;;;;0.97;82.71;101349.22;3725833;38;19923;-64
2021/01/12 08:23:16;;;;;;;;;67.50;53.50;;;;;0.98;82.93;101342.06;3725683;38;19917;-64
2021/01/12 08:25:47;;;;;;;;;61.50;47.75;;;;;0.95;82.61;101323.62;3725197;38;19946;-63
2021/01/12 08:28:13;;;;;;;;;65.50;48.75;;;;;1.02;82.80;101329.41;3725480;38;19974;-63
2021/01/12 08:30:42;;;;;;;;;62.50;49.00;;;;;0.96;82.65;101312.84;3725595;37;19932;-65
2021/01/12 08:33:35;;;;;;;;;62.00;44.00;;;;;0.95;82.43;101297.81;3725341;37;19915;-65
2021/01/12 08:36:16;;;;;;;;;59.25;48.00;;;;;1.03;82.49;101309.78;3725735;37;19921;-65
2021/01/12 08:38:48;;;;;;;;;68.25;50.50;;;;;1.13;82.66;101332.16;3725355;37;19916;-64
2021/01/12 08:41:15;;;;;;;;;55.00;42.25;;;;;1.08;82.07;101328.94;3725331;38;19914;-64
2021/01/12 08:43:45;;;;;;;;;66.75;53.00;;;;;1.00;82.22;101297.50;3722777;37;20050;-65
2021/01/12 08:46:13;;;;;;;;;72.00;50.25;;;;;1.13;81.84;101311.69;3722830;38;19909;-64
2021/01/12 08:48:50;;;;;;;;;71.25;50.50;;;;;1.09;81.96;101309.31;3724959;37;20026;-62
2021/01/12 08:51:18;;;;;;;;;61.00;48.50;;;;;1.03;81.89;101278.66;3725662;37;20050;-62
2021/01/12 08:53:49;;;;;;;;;62.00;48.25;;;;;1.13;82.05;101287.69;3725131;38;19900;-63
2021/01/12 08:56:17;;;;;;;;;61.75;45.00;;;;;1.21;81.44;101284.50;3725083;38;19919;-63
2021/01/12 08:58:44;;;;;;;;;53.00;41.75;;;;;1.24;81.49;101290.47;3725684;38;19901;-64
2021/01/12 09:01:16;;;;;;;;;70.75;54.00;;;;;1.28;81.82;101312.44;3725550;38;19898;-65
2021/01/12 09:03:43;;;;;;;;;63.25;49.00;;;;;1.28;81.53;101313.31;3724873;38;19893;-65
2021/01/12 09:06:23;;;;;;;;;61.75;48.00;;;;;1.37;81.65;101327.81;3726575;37;19875;-64
2021/01/12 09:08:53;;;;;;;;;70.50;52.50;;;;;1.30;81.55;101321.19;3725864;38;19874;-64
2021/01/12 09:11:23;;;;;;;;;64.00;49.50;;;;;1.32;81.97;101322.81;3725335;37;19901;-64
2021/01/12 09:13:50;;;;;;;;;68.50;51.75;;;;;1.20;81.87;101301.44;3725406;37;19866;-64
2021/01/12 09:16:20;;;;;;;;;67.75;50.75;;;;;1.19;82.03;101311.25;3725020;38;19870;-65
2021/01/12 09:18:47;;;;;;;;;65.00;50.75;;;;;1.32;81.88;101313.94;3725509;38;19870;-64
2021/01/12 09:21:13;;;;;;;;;66.25;48.75;;;;;1.35;81.70;101310.22;3725668;37;19874;-64
2021/01/12 09:23:42;;;;;;;;;77.25;53.00;;;;;1.36;81.86;101311.94;3725339;37;19858;-63
2021/01/12 09:26:10;;;;;;;;;66.00;51.25;;;;;1.39;81.50;101306.38;3725255;38;19860;-63
2021/01/12 09:28:39;;;;;;;;;57.25;45.50;;;;;1.34;82.07;101290.69;3725702;38;19866;-65
2021/01/12 09:31:10;;;;;;;;;70.25;53.25;;;;;1.23;81.80;101267.44;3725768;38;19848;-63
2021/01/12 09:33:38;;;;;;;;;72.75;54.75;;;;;1.45;81.84;101280.13;3725886;37;19847;-64
2021/01/12 09:36:10;;;;;;;;;69.25;52.50;;;;;1.49;81.67;101276.28;3725347;38;19833;-64
2021/01/12 09:38:47;;;;;;;;;71.25;52.25;;;;;1.46;81.33;101273.00;3725396;37;19845;-63
2021/01/12 09:41:16;;;;;;;;;68.25;49.25;;;;;1.36;80.93;101271.94;3725610;38;19830;-64
2021/01/12 09:43:43;;;;;;;;;64.50;50.00;;;;;1.35;81.57;101267.56;3725264;38;19848;-63
2021/01/12 09:46:10;;;;;;;;;73.50;55.50;;;;;1.38;81.42;101267.34;3725658;37;19840;-66
2021/01/12 09:48:37;;;;;;;;;70.25;54.00;;;;;1.32;81.26;101256.12;3725361;38;19832;-62
2021/01/12 09:51:05;;;;;;;;;66.75;49.75;;;;;1.26;81.54;101256.56;3725694;37;19842;-64
2021/01/12 09:53:32;;;;;;;;;72.00;50.75;;;;;1.13;81.37;101217.53;3725910;38;19817;-64
2021/01/12 09:55:59;;;;;;;;;65.50;50.75;;;;;1.27;81.66;101231.59;3725819;37;19803;-62
2021/01/12 09:58:28;;;;;;;;;57.00;42.25;;;;;1.35;81.59;101240.87;3725901;37;19831;-64
2021/01/12 10:00:56;;;;;;;;;59.75;44.50;;;;;1.22;81.81;101206.22;3726134;37;19803;-62
2021/01/12 10:03:24;;;;;;;;;62.75;46.25;;;;;1.27;81.91;101196.94;3725840;37;19850;-65
2021/01/12 10:05:50;;;;;;;;;59.00;45.00;;;;;1.35;81.75;101207.06;3725650;37;19801;-63
2021/01/12 10:08:17;;;;;;;;;63.25;47.75;;;;;1.29;81.95;101183.50;3726097;37;19802;-63
2021/01/12 10:10:43;;;;;;;;;70.75;54.00;;;;;1.33;81.69;101185.84;3726056;38;19803;-65
2021/01/12 10:13:10;;;;;;;;;69.25;54.25;;;;;1.37;82.02;101193.63;3726480;37;19808;-65
2021/01/12 10:15:37;;;;;;;;;67.00;49.50;;;;;1.33;81.82;101174.31;3727052;38;20786;-64
2021/01/12 10:18:04;;;;;;;;;69.00;53.50;;;;;1.41;82.02;101168.44;3725549;38;19797;-63
2021/01/12 10:20:30;;;;;;;;;63.50;49.00;;;;;1.45;82.01;101146.78;3725489;37;20868;-65
2021/01/12 10:22:57;;;;;;;;;57.25;40.00;;;;;1.49;81.75;101136.75;3725349;37;20767;-64
2021/01/12 10:25:24;;;;;;;;;63.50;49.50;;;;;1.76;81.90;101163.19;3724841;37;20760;-64
2021/01/12 10:27:50;;;;;;;;;63.75;48.75;;;;;1.77;80.94;101146.22;3725490;37;20754;-65
2021/01/12 10:30:18;;;;;;;;;61.00;49.75;;;;;1.80;81.03;101143.34;3725583;37;20762;-66
2021/01/12 10:32:52;;;;;;;;;62.75;46.25;;;;;1.64;80.54;101131.13;3725254;38;20761;-65
2021/01/12 10:35:19;;;;;;;;;58.75;46.25;;;;;1.59;80.59;101121.75;3725087;37;20773;-64
2021/01/12 10:37:45;;;;;;;;;60.25;48.00;;;;;1.69;80.68;101152.13;3725094;38;20756;-65
2021/01/12 10:40:13;;;;;;;;;56.75;45.00;;;;;0.95;80.63;101011.81;3725788;37;20766;-66
2021/01/12 10:42:45;;;;;;;;;65.50;48.50;;;;;1.71;80.63;101123.50;3725305;38;20753;-65
2021/01/12 10:45:14;;;;;;;;;61.25;47.25;;;;;1.75;80.79;101119.66;3725752;38;20767;-64
2021/01/12 10:47:44;;;;;;;;;59.75;43.25;;;;;1.82;80.47;101136.06;3725155;38;20742;-64
2021/01/12 10:50:19;;;;;;;;;56.50;41.25;;;;;1.84;80.38;101124.31;3725320;38;20729;-64
2021/01/12 10:52:47;;;;;;;;;67.25;52.00;;;;;1.89;79.60;101138.16;3725509;37;20755;-64
2021/01/12 10:55:14;;;;;;;;;59.25;44.00;;;;;1.79;79.96;101126.47;3725465;38;20748;-65
2021/01/12 10:57:44;;;;;;;;;62.75;48.00;;;;;1.98;79.84;101141.97;3724868;38;20729;-65
2021/01/12 11:00:11;;;;;;;;;68.50;47.50;;;;;1.87;79.36;101124.09;3725170;38;20730;-65
2021/01/12 11:02:38;;;;;;;;;62.00;43.50;;;;;1.98;79.10;101147.31;3725758;38;20721;-63
2021/01/12 11:05:05;;;;;;;;;63.50;46.50;;;;;2.09;79.59;101143.81;3725366;38;20724;-64
2021/01/12 11:07:32;;;;;;;;;62.00;48.50;;;;;1.96;79.40;101099.38;3725422;38;20719;-63
2021/01/12 11:10:00;;;;;;;;;61.75;48.25;;;;;2.17;79.33;101115.56;3725090;37;20727;-64
2021/01/12 11:12:30;;;;;;;;;65.75;49.50;;;;;2.05;78.99;101078.31;3725047;38;20769;-63
2021/01/12 11:14:57;;;;;;;;;69.50;52.00;;;;;2.17;79.20;101099.56;3724771;37;20724;-62
2021/01/12 11:17:24;;;;;;;;;71.00;52.00;;;;;2.16;78.65;101105.88;3724895;37;20717;-63
2021/01/12 11:19:51;;;;;;;;;59.75;47.00;;;;;2.10;78.83;101095.66;3725417;37;20710;-64
2021/01/12 11:22:26;;;;;;;;;62.75;49.50;;;;;1.84;78.84;101076.28;3725071;38;20691;-63